Entries

スポンサーサイト

blog開設しました

更新履歴の公開と情報交換などができればと思い、開設してみました。...

明日の準備

15:00、札幌は生暖かい雨が降っています。風はほとんど吹いていません。台風5号は今夜中に通過しそうです。よかった×2明日は曇りでしょうか、、、雲が低くてフライトが中止になるかもしれません。会場に着いたら、まず気象隊の展示へ行って、フライトの予定を聞いてみようと思います。明日の持ち物レジャーシート、折りたたみ椅子デジカメ、予備バッテリー2個、予備SDカード1枚帽子、日焼け止め、タオル、お弁当、飲み物メモ用...

雲が、、、

04:47、札幌は雲が低いです、、、身支度して、行ってきます!...

千歳は、

RJCJ 041950Z 01004KT 4000 -DZ BR FEW002 BKN004 OVC008 19/18 Q1006 RMK 1ST002 5ST004 8ST008 A2972弱い霧雨、霞、視程5km以下雲も低いなぁ、、、...

只今

帰りました。16:00千歳は朝から曇時々小雨、雲底は400フィート。例年通り、7時に開門しました。午前中のフライトは軒並みキャンセル。飛んだのは、救難訓練のUH-60J×1機、F-15J×2機(離陸と着陸のみ)。13時からのブルーインパルスは飛びました。演技はもちろんすべて水平系。今年は、F-15×2機の弾薬搭載・緊急発進展示の目の前に席を確保しました。F-15のエンジン音でまだ耳鳴りがしてます、、、耳栓も必要ですね。地上系の...

正門

着いたのは7時の開門前でしたが、周辺の道路には既に入場を待つ車が長~~~~~い行列を作っていました。...

U-125A

千歳基地開庁50周年記念のマークが入っています。...

F-15J

垂直尾翼と補助燃料タンクに千歳基地開庁50周年記念のペイントがされています。...

本館更新しました。

制作途中の暫定版ですが、今年の写真をupしました。・地上展示機・F15装備品・弾薬搭載・緊急発進展示・ブルーインパルスの4ページです。写真のみで説明のコメントはまだついていません。天気が悪かったので、写真の写りもイマイチです。ご容赦下さい。...

さらに更新しました。

昨日に引き続き、・救難訓練などのページ・ミサイルなどのページ・通信・車両などのページ・会場風景のページ・プログラムのページを追加しました。今年撮った写真はこれですべてupしました。説明のコメントはこれから少しづつつけていこうと思います。...

Appendix

プロフィール

Jiro FURUYA

Author:Jiro FURUYA
千歳航空祭地上系別館へようこそ!

最近のトラックバック

FC2カウンター

ana

ブログ内検索

上記広告は1ヶ月以上更新のないブログに表示されています。新しい記事を書くことで広告を消せます。